Helmetta, New Jersey
Current Conditions -  °F | °C
As of 9:15 AM on Wednesday 28 Jan 2015 (Local Time) from KLDJ Reporting Station
Clear Clear  
Wind Chill: 12°   Ceiling: Unl
Heat Index: 25°   Visibility: 10mi
Dew Point:   Wind: 17mph
Humidity: 50%   Direction: 320°NW
Pressure: 30.07"   Gusts: 23mph
Location:  40.38°N, 74.42°W
Report Text: KLDJ 281415Z AUTO 32015G20KT 10SM CLR M04/M13 A3007 RMK AO2 T10391130
Loading
Personal Weather Stations






























Interactive Weather Map New forecast layout! Learn more

10-Day Weather Forecast

Advertisements
Track Severe Weather on mobile